createdAt,value
2023-02-06T00:03:22.945Z,31.87
2023-02-06T00:07:29.692Z,23.80
2023-02-06T00:11:36.759Z,32.40
2023-02-06T00:15:43.657Z,37.13
2023-02-06T00:19:50.400Z,30.80
2023-02-06T00:24:01.118Z,32.90
2023-02-06T00:28:07.841Z,21.87
2023-02-06T00:32:14.791Z,20.87
2023-02-06T00:36:21.502Z,31.23
2023-02-06T00:40:28.211Z,19.37
2023-02-06T00:44:34.946Z,26.17
2023-02-06T00:48:42.194Z,27.53
2023-02-06T00:52:48.984Z,35.73
2023-02-06T00:56:55.671Z,28.63
2023-02-06T01:01:02.373Z,38.33
2023-02-06T01:05:09.195Z,40.97
2023-02-06T01:09:15.875Z,37.00
2023-02-06T01:13:22.791Z,28.73
2023-02-06T01:17:30.804Z,31.90
2023-02-06T01:21:37.510Z,25.07
2023-02-06T01:25:44.195Z,40.40
2023-02-06T01:29:50.980Z,28.13
2023-02-06T01:33:59.533Z,30.70
2023-02-06T01:38:06.253Z,29.83
2023-02-06T01:42:13.491Z,24.13
2023-02-06T01:46:20.168Z,21.43
2023-02-06T01:50:28.675Z,30.17
2023-02-06T01:54:35.780Z,24.63
2023-02-06T01:58:44.755Z,33.90
2023-02-06T02:02:51.451Z,26.37
2023-02-06T02:07:20.531Z,25.67
2023-02-06T02:11:38.851Z,27.53
2023-02-06T02:16:19.416Z,29.50
2023-02-06T02:20:53.809Z,27.40
2023-02-06T02:25:31.850Z,33.00
2023-02-06T02:30:15.585Z,26.33
2023-02-06T02:34:53.109Z,28.70
2023-02-06T02:39:39.149Z,17.07
2023-02-06T02:44:09.642Z,26.57
2023-02-06T02:48:28.432Z,24.23
2023-02-06T02:52:35.125Z,31.20
2023-02-06T02:56:41.872Z,31.30
2023-02-06T03:01:11.607Z,24.43
2023-02-06T03:05:22.909Z,36.53
2023-02-06T03:09:54.102Z,32.40
2023-02-06T03:14:31.096Z,35.87
2023-02-06T03:18:43.769Z,22.30
2023-02-06T03:27:01.304Z,31.57
2023-02-06T03:31:11.864Z,21.73
2023-02-06T03:35:22.489Z,29.17
2023-02-06T03:39:29.700Z,23.77
2023-02-06T03:43:36.876Z,21.93
2023-02-06T03:47:45.062Z,14.20
2023-02-06T03:52:06.653Z,26.13
2023-02-06T03:56:19.382Z,22.60
2023-02-06T04:00:26.960Z,22.57
2023-02-06T04:04:39.148Z,21.67
2023-02-06T04:08:46.080Z,22.70
2023-02-06T04:12:52.810Z,17.63
2023-02-06T04:16:59.488Z,22.80
2023-02-06T04:21:07.195Z,11.60
2023-02-06T04:25:13.933Z,12.77
2023-02-06T04:29:20.613Z,18.97
2023-02-06T04:33:27.380Z,14.20
2023-02-06T04:37:34.167Z,19.10
2023-02-06T04:41:40.878Z,12.53
2023-02-06T04:45:47.564Z,14.80
2023-02-06T04:49:54.219Z,17.70
2023-02-06T04:54:01.850Z,13.00
2023-02-06T04:58:08.917Z,18.60
2023-02-06T05:02:15.633Z,10.80
2023-02-06T05:06:22.438Z,12.57
2023-02-06T05:10:29.200Z,11.43
2023-02-06T05:14:35.888Z,9.63
2023-02-06T05:18:46.508Z,8.10
2023-02-06T05:22:53.211Z,11.97
2023-02-06T05:26:59.948Z,10.77
2023-02-06T05:31:06.872Z,5.43
2023-02-06T05:35:13.604Z,7.00
2023-02-06T05:39:20.337Z,10.00
2023-02-06T05:43:27.052Z,10.77
2023-02-06T05:47:33.796Z,9.57
2023-02-06T05:51:40.570Z,9.63
2023-02-06T05:55:47.378Z,6.57
2023-02-06T05:59:54.097Z,25.90
2023-02-06T06:04:00.896Z,7.97
2023-02-06T06:08:07.714Z,14.97
2023-02-06T06:12:14.650Z,13.77
2023-02-06T06:16:21.593Z,5.27
2023-02-06T06:20:28.321Z,8.77
2023-02-06T06:24:34.991Z,12.00
2023-02-06T06:28:41.764Z,9.80
2023-02-06T06:32:48.446Z,9.73
2023-02-06T06:36:55.166Z,10.10
2023-02-06T06:41:02.037Z,6.27
2023-02-06T06:45:08.976Z,10.73
2023-02-06T06:49:15.707Z,9.63
2023-02-06T06:53:22.419Z,13.97
2023-02-06T06:57:32.450Z,12.50
2023-02-06T07:01:39.255Z,25.43
2023-02-06T07:05:46.025Z,9.13
2023-02-06T07:09:52.696Z,19.17
2023-02-06T07:13:59.432Z,11.00
2023-02-06T07:18:06.123Z,16.37
2023-02-06T07:22:12.783Z,20.47
2023-02-06T07:26:19.484Z,15.40
2023-02-06T07:30:26.193Z,13.07
2023-02-06T07:34:35.501Z,19.97
2023-02-06T07:38:42.298Z,7.50
2023-02-06T07:42:49.152Z,17.77
2023-02-06T07:46:57.033Z,17.67
2023-02-06T07:51:06.021Z,14.53
2023-02-06T07:55:12.897Z,13.77
2023-02-06T07:59:19.760Z,15.23
2023-02-06T08:03:26.562Z,15.13
2023-02-06T08:07:33.309Z,14.63
2023-02-06T08:11:41.230Z,12.27
2023-02-06T08:15:48.009Z,15.83
2023-02-06T08:19:54.790Z,16.13
2023-02-06T08:24:01.769Z,17.73
2023-02-06T08:28:09.063Z,17.70
2023-02-06T08:32:15.855Z,21.90
2023-02-06T08:36:23.771Z,11.07
2023-02-06T08:40:30.465Z,14.50
2023-02-06T08:44:37.336Z,18.53
2023-02-06T08:48:45.183Z,17.57
2023-02-06T08:52:51.896Z,18.93
2023-02-06T08:57:01.005Z,17.83
2023-02-06T09:01:16.714Z,16.87
2023-02-06T09:05:24.303Z,20.23
2023-02-06T09:09:30.992Z,20.13
2023-02-06T09:13:38.460Z,21.08
2023-02-06T09:17:45.789Z,21.40
2023-02-06T09:21:52.676Z,17.35
2023-02-06T09:25:59.421Z,23.27
2023-02-06T09:30:06.471Z,19.42
2023-02-06T09:34:14.255Z,25.67
2023-02-06T09:38:20.966Z,19.60
2023-02-06T09:42:33.695Z,19.80
2023-02-06T09:46:59.326Z,18.48
2023-02-06T09:51:34.339Z,22.30
2023-02-06T09:55:44.441Z,27.38
2023-02-06T10:00:00.316Z,28.77
2023-02-06T10:04:31.870Z,27.13
2023-02-06T10:08:54.982Z,19.80
2023-02-06T10:13:22.518Z,35.38
2023-02-06T10:17:56.334Z,26.10
2023-02-06T10:22:09.497Z,27.90
2023-02-06T10:26:18.373Z,26.63
2023-02-06T10:31:03.818Z,29.25
2023-02-06T10:35:23.879Z,23.30
2023-02-06T10:39:57.940Z,12.65
2023-02-06T10:44:19.269Z,28.17
2023-02-06T10:48:39.127Z,25.30
2023-02-06T10:52:46.806Z,21.80
2023-02-06T10:56:56.908Z,26.60
2023-02-06T11:01:20.072Z,17.80
2023-02-06T11:05:32.420Z,21.30
2023-02-06T11:09:39.185Z,13.27
2023-02-06T11:14:00.194Z,24.30
2023-02-06T11:18:11.420Z,21.42
2023-02-06T11:22:28.665Z,16.10
2023-02-06T11:26:46.227Z,12.48
2023-02-06T11:30:59.382Z,22.55
2023-02-06T11:35:21.282Z,28.63
2023-02-06T11:39:36.980Z,26.27
2023-02-06T11:43:43.627Z,20.45
2023-02-06T11:47:50.346Z,18.25
2023-02-06T11:52:00.291Z,23.63
2023-02-06T11:56:23.479Z,13.60
2023-02-06T12:00:30.880Z,14.85
2023-02-06T12:04:40.679Z,16.35
2023-02-06T12:08:50.708Z,15.82
2023-02-06T12:13:07.351Z,19.85
2023-02-06T12:17:26.811Z,9.35
2023-02-06T12:21:47.127Z,10.05
2023-02-06T12:26:00.913Z,19.52
2023-02-06T12:30:19.565Z,33.00
2023-02-06T12:34:53.755Z,18.83
2023-02-06T12:39:17.592Z,19.05
2023-02-06T12:43:25.114Z,20.35
2023-02-06T12:48:12.941Z,12.45
2023-02-06T12:52:31.380Z,19.58
2023-02-06T12:56:44.076Z,19.40
2023-02-06T13:01:27.997Z,18.77
2023-02-06T13:05:40.227Z,18.85
2023-02-06T13:09:53.424Z,18.67
2023-02-06T13:14:16.981Z,15.68
2023-02-06T13:18:42.737Z,14.95
2023-02-06T13:23:12.376Z,16.58
2023-02-06T13:27:24.635Z,19.42
2023-02-06T13:31:33.732Z,12.57
2023-02-06T13:36:05.496Z,17.83
2023-02-06T13:40:24.253Z,14.60
2023-02-06T13:44:34.683Z,11.23
2023-02-06T13:49:23.254Z,15.57
2023-02-06T13:53:58.249Z,16.63
2023-02-06T13:58:36.788Z,18.50
2023-02-06T14:02:50.692Z,16.45
2023-02-06T14:07:10.397Z,16.33
2023-02-06T14:12:03.930Z,17.20
2023-02-06T14:16:36.123Z,20.02
2023-02-06T14:20:51.094Z,21.83
2023-02-06T14:25:15.321Z,18.75
2023-02-06T14:29:29.851Z,11.85
2023-02-06T14:34:03.692Z,15.38
2023-02-06T14:38:41.762Z,21.33
2023-02-06T14:42:50.513Z,9.63
2023-02-06T14:46:58.091Z,17.67
2023-02-06T14:51:06.679Z,9.90
2023-02-06T14:55:31.087Z,13.27
2023-02-06T14:59:37.783Z,10.05
2023-02-06T15:03:49.825Z,13.55
2023-02-06T15:07:59.760Z,13.88
2023-02-06T15:12:36.003Z,14.45
2023-02-06T15:16:50.206Z,15.98
2023-02-06T15:21:13.388Z,10.88
2023-02-06T15:25:49.764Z,13.45
2023-02-06T15:29:57.492Z,11.27
2023-02-06T15:34:04.214Z,19.52
2023-02-06T15:38:14.261Z,13.45
2023-02-06T15:42:22.727Z,17.60
2023-02-06T15:46:30.820Z,15.18
2023-02-06T15:50:38.461Z,14.80
2023-02-06T15:54:57.558Z,15.82
2023-02-06T15:59:12.213Z,20.15
2023-02-06T16:03:23.000Z,21.80
2023-02-06T16:07:32.894Z,11.27
2023-02-06T16:11:46.503Z,16.85
2023-02-06T16:16:19.505Z,12.95
2023-02-06T16:20:32.166Z,10.02
2023-02-06T16:24:38.837Z,13.85
2023-02-06T16:29:09.852Z,7.93
2023-02-06T16:33:34.302Z,9.45
2023-02-06T16:37:40.970Z,9.32
2023-02-06T16:41:52.115Z,10.32
2023-02-06T16:46:02.086Z,11.30
2023-02-06T16:50:10.508Z,12.35
2023-02-06T16:54:26.993Z,12.05
2023-02-06T16:58:34.972Z,7.57
2023-02-06T17:02:41.671Z,5.95
2023-02-06T17:06:48.535Z,10.35
2023-02-06T17:10:55.275Z,10.73
2023-02-06T17:15:01.972Z,13.35
2023-02-06T17:19:10.905Z,11.95
2023-02-06T17:23:18.185Z,17.70
2023-02-06T17:27:25.676Z,9.63
2023-02-06T17:31:32.496Z,13.43
2023-02-06T17:35:39.302Z,12.73
2023-02-06T17:39:47.238Z,9.90
2023-02-06T17:43:54.181Z,8.63
2023-02-06T17:48:01.032Z,6.20
2023-02-06T17:52:07.734Z,5.85
2023-02-06T17:56:14.413Z,5.83
2023-02-06T18:00:23.643Z,16.15
2023-02-06T18:04:30.425Z,11.70
2023-02-06T18:08:37.961Z,11.38
2023-02-06T18:12:44.756Z,12.20
2023-02-06T18:16:51.449Z,6.38
2023-02-06T18:20:58.554Z,9.13
2023-02-06T18:25:05.517Z,10.57
2023-02-06T18:29:12.233Z,10.67
2023-02-06T18:33:18.943Z,15.93
2023-02-06T18:37:26.708Z,5.73
2023-02-06T18:41:51.955Z,11.03
2023-02-06T18:45:58.699Z,14.13
2023-02-06T18:50:05.788Z,9.67
2023-02-06T18:54:12.472Z,10.17
2023-02-06T18:58:19.223Z,6.13
2023-02-06T19:02:26.477Z,14.27
2023-02-06T19:06:36.490Z,4.83
2023-02-06T19:10:43.340Z,9.93
2023-02-06T19:14:50.113Z,9.07
2023-02-06T19:18:56.974Z,6.13
2023-02-06T19:23:03.654Z,9.37
2023-02-06T19:27:12.031Z,2.93
2023-02-06T19:31:25.746Z,8.83
2023-02-06T19:35:32.461Z,10.53
2023-02-06T19:39:40.369Z,7.77
2023-02-06T19:43:48.283Z,10.30
2023-02-06T19:47:57.037Z,6.53
2023-02-06T19:52:04.076Z,9.07
2023-02-06T19:56:17.818Z,8.10
2023-02-06T20:00:24.501Z,10.63
2023-02-06T20:04:34.123Z,4.73
2023-02-06T20:08:43.851Z,11.10
2023-02-06T20:12:50.900Z,7.00
2023-02-06T20:16:57.626Z,13.23
2023-02-06T20:21:04.861Z,11.17
2023-02-06T20:25:11.696Z,8.20
2023-02-06T20:29:31.322Z,7.00
2023-02-06T20:33:38.524Z,13.23
2023-02-06T20:37:45.193Z,5.63
2023-02-06T20:41:52.402Z,8.10
2023-02-06T20:45:59.452Z,9.17
2023-02-06T20:50:07.746Z,3.47
2023-02-06T20:54:14.558Z,9.00
2023-02-06T20:58:21.469Z,6.17
2023-02-06T21:02:29.339Z,8.17
2023-02-06T21:06:37.703Z,9.60
2023-02-06T21:10:44.373Z,13.70
2023-02-06T21:14:51.050Z,5.43
2023-02-06T21:18:58.713Z,6.13
2023-02-06T21:23:05.390Z,3.27
2023-02-06T21:27:12.052Z,2.57
2023-02-06T21:31:22.590Z,7.83
2023-02-06T21:35:32.594Z,6.47
2023-02-06T21:39:40.951Z,9.03
2023-02-06T21:43:47.919Z,9.37
2023-02-06T21:47:54.547Z,10.50
2023-02-06T21:52:01.198Z,7.67
2023-02-06T21:56:16.164Z,9.47
2023-02-06T22:00:23.739Z,5.87
2023-02-06T22:04:30.495Z,9.50
2023-02-06T22:08:38.068Z,9.20
2023-02-06T22:12:49.100Z,14.97
2023-02-06T22:16:55.849Z,21.53
2023-02-06T22:21:04.622Z,6.93
2023-02-06T22:25:11.772Z,8.73
2023-02-06T22:29:18.601Z,7.07
2023-02-06T22:33:25.299Z,4.63
2023-02-06T22:37:33.021Z,7.93
2023-02-06T22:41:45.116Z,6.90
2023-02-06T22:45:51.821Z,7.70
2023-02-06T22:49:58.497Z,4.17
2023-02-06T22:54:05.855Z,9.93
2023-02-06T22:58:12.527Z,5.30
2023-02-06T23:02:19.241Z,12.17
2023-02-06T23:06:27.354Z,10.93
2023-02-06T23:10:34.040Z,8.90
2023-02-06T23:14:40.741Z,11.67
2023-02-06T23:18:47.812Z,12.80
2023-02-06T23:22:54.488Z,14.93
2023-02-06T23:27:01.236Z,6.53
2023-02-06T23:31:08.303Z,10.70
2023-02-06T23:35:15.088Z,10.07
2023-02-06T23:39:21.897Z,15.60
2023-02-06T23:43:28.548Z,13.93
2023-02-06T23:47:35.306Z,11.97
2023-02-06T23:51:42.147Z,14.90
2023-02-06T23:55:48.912Z,12.80
2023-02-06T23:59:55.585Z,14.07
